createdAt,value
2023-01-06T00:02:23.875Z,5.79
2023-01-06T00:04:50.806Z,5.79
2023-01-06T00:07:17.553Z,5.78
2023-01-06T00:09:44.417Z,5.77
2023-01-06T00:12:11.198Z,5.76
2023-01-06T00:14:38.117Z,5.75
2023-01-06T00:17:04.909Z,5.73
2023-01-06T00:19:31.881Z,5.72
2023-01-06T00:21:58.575Z,5.72
2023-01-06T00:24:25.394Z,5.71
2023-01-06T00:26:52.169Z,5.70
2023-01-06T00:29:19.834Z,5.73
2023-01-06T00:31:46.580Z,5.76
2023-01-06T00:34:13.472Z,5.79
2023-01-06T00:36:40.805Z,5.60
2023-01-06T00:39:11.552Z,5.73
2023-01-06T00:41:57.010Z,5.82
2023-01-06T00:44:23.921Z,5.83
2023-01-06T00:46:51.081Z,5.83
2023-01-06T00:49:17.998Z,5.82
2023-01-06T00:51:44.756Z,5.39
2023-01-06T00:54:12.538Z,5.76
2023-01-06T00:56:40.347Z,5.75
2023-01-06T00:59:08.161Z,5.71
2023-01-06T01:01:35.744Z,5.62
2023-01-06T01:04:02.866Z,5.55
2023-01-06T01:06:29.781Z,5.50
2023-01-06T01:08:57.475Z,5.53
2023-01-06T01:11:43.143Z,5.51
2023-01-06T01:14:10.698Z,5.50
2023-01-06T01:16:37.661Z,5.52
2023-01-06T01:19:04.591Z,5.56
2023-01-06T01:21:31.432Z,5.60
2023-01-06T01:23:58.307Z,5.67
2023-01-06T01:26:25.341Z,5.73
2023-01-06T01:28:52.342Z,5.79
2023-01-06T01:31:20.652Z,5.82
2023-01-06T01:33:47.559Z,5.85
2023-01-06T01:36:18.016Z,5.88
2023-01-06T01:38:45.064Z,5.89
2023-01-06T01:41:17.394Z,5.90
2023-01-06T01:43:45.359Z,5.89
2023-01-06T01:46:13.396Z,5.87
2023-01-06T01:48:40.721Z,5.85
2023-01-06T01:51:09.438Z,5.84
2023-01-06T01:53:38.588Z,5.88
2023-01-06T01:56:07.081Z,5.91
2023-01-06T01:58:38.759Z,5.93
2023-01-06T02:01:07.178Z,5.96
2023-01-06T02:03:36.833Z,5.97
2023-01-06T02:06:07.539Z,5.96
2023-01-06T02:08:37.234Z,5.94
2023-01-06T02:11:05.451Z,5.91
2023-01-06T02:13:33.391Z,5.90
2023-01-06T02:16:05.640Z,5.88
2023-01-06T02:19:08.032Z,5.84
2023-01-06T02:21:53.118Z,5.80
2023-01-06T02:24:38.368Z,5.79
2023-01-06T02:27:16.594Z,5.73
2023-01-06T02:30:02.361Z,5.69
2023-01-06T02:32:38.361Z,5.69
2023-01-06T02:35:12.831Z,5.69
2023-01-06T02:37:40.910Z,5.68
2023-01-06T02:40:26.221Z,5.66
2023-01-06T02:42:59.256Z,5.24
2023-01-06T02:45:49.302Z,5.58
2023-01-06T02:48:28.512Z,5.56
2023-01-06T02:51:02.460Z,5.51
2023-01-06T02:53:29.252Z,5.48
2023-01-06T02:55:57.314Z,5.47
2023-01-06T02:58:42.926Z,5.45
2023-01-06T03:01:13.680Z,5.45
2023-01-06T03:03:42.987Z,5.45
2023-01-06T03:06:12.761Z,5.46
2023-01-06T03:08:40.060Z,5.48
2023-01-06T03:11:07.423Z,5.49
2023-01-06T03:13:38.912Z,5.51
2023-01-06T03:16:06.449Z,5.56
2023-01-06T03:18:34.350Z,5.58
2023-01-06T03:21:05.200Z,5.64
2023-01-06T03:23:33.192Z,5.69
2023-01-06T03:26:00.002Z,5.73
2023-01-06T03:28:27.193Z,5.77
2023-01-06T03:31:12.225Z,5.81
2023-01-06T03:33:45.319Z,5.82
2023-01-06T03:36:39.480Z,5.84
2023-01-06T03:39:18.387Z,5.88
2023-01-06T03:42:34.840Z,5.90
2023-01-06T03:45:09.051Z,5.92
2023-01-06T03:47:52.466Z,5.92
2023-01-06T03:50:23.365Z,5.91
2023-01-06T03:53:14.853Z,5.89
2023-01-06T03:55:46.174Z,5.86
2023-01-06T03:58:14.541Z,5.85
2023-01-06T04:00:41.736Z,5.79
2023-01-06T04:03:11.663Z,5.72
2023-01-06T04:05:38.685Z,5.67
2023-01-06T04:08:05.621Z,5.58
2023-01-06T04:10:32.391Z,5.51
2023-01-06T04:12:59.647Z,5.41
2023-01-06T04:15:30.776Z,5.28
2023-01-06T04:17:59.037Z,5.18
2023-01-06T04:20:28.441Z,5.08
2023-01-06T04:23:01.435Z,5.00
2023-01-06T04:25:33.680Z,4.91
2023-01-06T04:28:08.759Z,4.87
2023-01-06T04:30:35.649Z,4.87
2023-01-06T04:33:03.083Z,4.88
2023-01-06T04:35:29.832Z,4.94
2023-01-06T04:37:57.615Z,5.01
2023-01-06T04:40:24.451Z,5.09
2023-01-06T04:43:06.440Z,5.15
2023-01-06T04:45:34.408Z,5.23
2023-01-06T04:48:01.202Z,5.29
2023-01-06T04:50:28.071Z,5.35
2023-01-06T04:52:54.789Z,5.41
2023-01-06T04:55:21.634Z,5.45
2023-01-06T04:57:48.484Z,5.51
2023-01-06T05:00:15.790Z,5.56
2023-01-06T05:02:42.742Z,5.60
2023-01-06T05:05:10.019Z,5.66
2023-01-06T05:07:36.721Z,5.68
2023-01-06T05:10:04.112Z,5.70
2023-01-06T05:12:31.442Z,5.75
2023-01-06T05:14:58.277Z,5.78
2023-01-06T05:17:25.198Z,5.79
2023-01-06T05:19:52.018Z,5.80
2023-01-06T05:22:18.765Z,5.83
2023-01-06T05:24:45.573Z,5.89
2023-01-06T05:27:12.551Z,5.92
2023-01-06T05:29:39.505Z,5.94
2023-01-06T05:32:06.244Z,5.96
2023-01-06T05:34:33.031Z,5.98
2023-01-06T05:36:59.799Z,5.99
2023-01-06T05:39:26.613Z,6.03
2023-01-06T05:41:53.320Z,6.06
2023-01-06T05:44:20.852Z,6.09
2023-01-06T05:46:47.792Z,6.12
2023-01-06T05:49:14.671Z,6.13
2023-01-06T05:51:41.469Z,6.15
2023-01-06T05:54:08.841Z,6.17
2023-01-06T05:56:35.921Z,6.18
2023-01-06T05:59:03.073Z,6.22
2023-01-06T06:01:31.568Z,6.24
2023-01-06T06:03:58.889Z,6.25
2023-01-06T06:06:26.992Z,6.27
2023-01-06T06:08:53.802Z,6.28
2023-01-06T06:11:20.934Z,6.27
2023-01-06T06:13:48.767Z,6.30
2023-01-06T06:16:16.476Z,6.31
2023-01-06T06:18:44.108Z,6.32
2023-01-06T06:21:14.961Z,6.33
2023-01-06T06:23:42.284Z,6.36
2023-01-06T06:26:09.771Z,6.36
2023-01-06T06:28:37.156Z,6.36
2023-01-06T06:31:30.054Z,6.37
2023-01-06T06:33:58.389Z,6.39
2023-01-06T06:36:25.266Z,6.39
2023-01-06T06:38:52.594Z,6.36
2023-01-06T06:41:20.020Z,6.35
2023-01-06T06:43:48.644Z,6.36
2023-01-06T06:46:15.468Z,6.36
2023-01-06T06:48:42.325Z,6.37
2023-01-06T06:51:10.544Z,6.41
2023-01-06T06:53:38.190Z,6.41
2023-01-06T06:56:05.522Z,6.42
2023-01-06T06:58:32.715Z,6.42
2023-01-06T07:00:59.545Z,6.41
2023-01-06T07:03:26.513Z,6.41
2023-01-06T07:05:53.729Z,6.41
2023-01-06T07:08:20.696Z,6.42
2023-01-06T07:10:47.472Z,6.43
2023-01-06T07:13:14.294Z,6.42
2023-01-06T07:15:41.291Z,6.42
2023-01-06T07:18:08.275Z,6.41
2023-01-06T07:20:36.083Z,6.39
2023-01-06T07:23:03.454Z,6.41
2023-01-06T07:25:30.463Z,6.38
2023-01-06T07:27:59.813Z,6.38
2023-01-06T07:30:27.565Z,6.36
2023-01-06T07:32:54.380Z,6.37
2023-01-06T07:35:21.148Z,6.37
2023-01-06T07:37:48.143Z,6.36
2023-01-06T07:40:15.075Z,6.34
2023-01-06T07:42:41.931Z,6.38
2023-01-06T07:45:09.236Z,6.43
2023-01-06T07:47:36.553Z,6.45
2023-01-06T07:50:04.415Z,6.50
2023-01-06T07:52:31.805Z,6.54
2023-01-06T07:54:59.712Z,6.59
2023-01-06T07:57:27.379Z,6.62
2023-01-06T07:59:54.344Z,6.66
2023-01-06T08:02:21.511Z,6.70
2023-01-06T08:04:48.801Z,6.72
2023-01-06T08:07:16.512Z,6.78
2023-01-06T08:09:44.019Z,6.80
2023-01-06T08:12:10.904Z,6.83
2023-01-06T08:14:38.101Z,6.88
2023-01-06T08:17:07.200Z,6.93
2023-01-06T08:19:34.258Z,6.97
2023-01-06T08:22:01.144Z,7.00
2023-01-06T08:24:31.830Z,7.02
2023-01-06T08:26:59.575Z,7.05
2023-01-06T08:29:26.374Z,7.10
2023-01-06T08:31:59.368Z,7.13
2023-01-06T08:34:32.544Z,7.17
2023-01-06T08:36:59.393Z,7.20
2023-01-06T08:39:26.238Z,7.23
2023-01-06T08:41:54.699Z,7.26
2023-01-06T08:44:24.204Z,7.30
2023-01-06T08:46:50.951Z,7.34
2023-01-06T08:49:17.829Z,7.35
2023-01-06T08:51:44.673Z,7.38
2023-01-06T08:54:11.676Z,7.44
2023-01-06T08:56:39.279Z,7.46
2023-01-06T08:59:06.361Z,7.51
2023-01-06T09:01:35.524Z,7.55
2023-01-06T09:04:04.250Z,7.56
2023-01-06T09:06:31.425Z,7.58
2023-01-06T09:09:01.338Z,7.64
2023-01-06T09:11:30.796Z,7.66
2023-01-06T09:13:57.713Z,7.63
2023-01-06T09:16:25.850Z,7.62
2023-01-06T09:18:55.553Z,7.66
2023-01-06T09:21:23.095Z,7.69
2023-01-06T09:23:50.195Z,7.76
2023-01-06T09:26:19.016Z,7.83
2023-01-06T09:28:46.129Z,7.94
2023-01-06T09:31:13.182Z,7.99
2023-01-06T09:33:40.116Z,8.04
2023-01-06T09:36:07.424Z,8.05
2023-01-06T09:38:34.270Z,8.10
2023-01-06T09:41:19.757Z,8.25
2023-01-06T09:43:50.788Z,8.45
2023-01-06T09:46:20.077Z,8.54
2023-01-06T09:48:55.352Z,8.63
2023-01-06T09:51:23.819Z,8.76
2023-01-06T09:53:58.753Z,8.84
2023-01-06T09:56:26.533Z,8.95
2023-01-06T09:58:56.140Z,9.06
2023-01-06T10:01:27.951Z,9.18
2023-01-06T10:03:57.661Z,9.23
2023-01-06T10:06:35.622Z,9.28
2023-01-06T10:09:15.836Z,9.39
2023-01-06T10:11:57.960Z,9.52
2023-01-06T10:14:39.308Z,9.62
2023-01-06T10:17:26.277Z,9.76
2023-01-06T10:20:11.624Z,9.87
2023-01-06T10:22:50.379Z,9.98
2023-01-06T10:25:35.655Z,10.02
2023-01-06T10:28:10.597Z,10.49
2023-01-06T10:30:44.462Z,10.74
2023-01-06T10:33:34.809Z,10.91
2023-01-06T10:36:01.980Z,10.76
2023-01-06T10:38:40.189Z,10.74
2023-01-06T10:41:15.879Z,10.81
2023-01-06T10:43:49.369Z,10.84
2023-01-06T10:46:17.444Z,10.88
2023-01-06T10:48:46.917Z,10.89
2023-01-06T10:51:32.195Z,10.94
2023-01-06T10:54:00.810Z,11.05
2023-01-06T10:56:29.167Z,11.05
2023-01-06T10:58:59.611Z,11.05
2023-01-06T11:01:27.604Z,10.96
2023-01-06T11:04:14.754Z,11.00
2023-01-06T11:07:04.314Z,11.00
2023-01-06T11:09:31.262Z,10.97
2023-01-06T11:12:02.581Z,10.81
2023-01-06T11:14:31.314Z,10.80
2023-01-06T11:17:15.372Z,10.84
2023-01-06T11:19:44.324Z,10.85
2023-01-06T11:25:02.501Z,11.20
2023-01-06T11:27:29.261Z,11.38
2023-01-06T11:29:57.170Z,12.28
2023-01-06T11:32:27.168Z,13.89
2023-01-06T11:34:59.064Z,14.66
2023-01-06T11:37:34.976Z,15.50
2023-01-06T11:40:16.572Z,15.25
2023-01-06T11:42:46.215Z,15.53
2023-01-06T11:45:31.517Z,15.73
2023-01-06T11:48:01.064Z,16.09
2023-01-06T11:50:28.387Z,17.42
2023-01-06T11:52:59.295Z,18.62
2023-01-06T11:55:27.689Z,19.60
2023-01-06T11:58:06.306Z,20.31
2023-01-06T12:00:39.422Z,20.84
2023-01-06T12:03:36.711Z,21.23
2023-01-06T12:06:22.184Z,21.22
2023-01-06T12:09:10.029Z,21.54
2023-01-06T12:11:47.755Z,21.89
2023-01-06T12:14:28.375Z,22.25
2023-01-06T12:16:58.583Z,22.54
2023-01-06T12:19:33.519Z,22.78
2023-01-06T12:22:01.287Z,22.94
2023-01-06T12:24:29.772Z,22.82
2023-01-06T12:26:57.443Z,22.91
2023-01-06T12:29:28.249Z,23.12
2023-01-06T12:32:10.966Z,23.04
2023-01-06T12:34:42.009Z,22.94
2023-01-06T12:37:21.383Z,22.95
2023-01-06T12:40:07.627Z,22.82
2023-01-06T12:42:43.757Z,22.43
2023-01-06T12:45:31.596Z,21.98
2023-01-06T12:47:59.461Z,22.14
2023-01-06T12:50:37.806Z,22.21
2023-01-06T12:53:19.962Z,21.93
2023-01-06T12:56:08.323Z,21.92
2023-01-06T12:58:56.497Z,22.02
2023-01-06T13:01:43.172Z,22.31
2023-01-06T13:04:29.213Z,22.46
2023-01-06T13:06:57.271Z,22.59
2023-01-06T13:09:42.731Z,22.56
2023-01-06T13:12:09.617Z,22.64
2023-01-06T13:15:05.379Z,22.75
2023-01-06T13:17:42.145Z,22.73
2023-01-06T13:20:17.297Z,22.45
2023-01-06T13:22:44.566Z,22.04
2023-01-06T13:25:24.214Z,21.65
2023-01-06T13:27:53.823Z,21.20
2023-01-06T13:30:40.979Z,21.06
2023-01-06T13:33:14.097Z,21.03
2023-01-06T13:35:43.888Z,20.80
2023-01-06T13:38:18.352Z,20.55
2023-01-06T13:40:46.764Z,20.18
2023-01-06T13:43:13.610Z,20.01
2023-01-06T13:45:42.763Z,20.01
2023-01-06T13:48:11.417Z,19.81
2023-01-06T13:50:38.605Z,19.63
2023-01-06T13:53:06.509Z,19.48
2023-01-06T13:55:39.192Z,19.59
2023-01-06T13:58:29.199Z,19.75
2023-01-06T14:01:12.988Z,19.77
2023-01-06T14:03:40.833Z,19.77
2023-01-06T14:06:10.989Z,19.64
2023-01-06T14:08:39.695Z,19.62
2023-01-06T14:11:26.965Z,19.52
2023-01-06T14:13:58.595Z,19.11
2023-01-06T14:16:46.146Z,18.62
2023-01-06T14:19:17.880Z,18.31
2023-01-06T14:21:45.544Z,17.89
2023-01-06T14:24:18.261Z,17.73
2023-01-06T14:26:45.217Z,17.56
2023-01-06T14:29:30.956Z,17.33
2023-01-06T14:31:57.860Z,16.94
2023-01-06T14:34:25.109Z,16.53
2023-01-06T14:36:52.339Z,16.26
2023-01-06T14:39:21.261Z,16.15
2023-01-06T14:41:57.679Z,16.09
2023-01-06T14:44:37.367Z,15.95
2023-01-06T14:47:11.768Z,15.72
2023-01-06T14:49:44.811Z,15.07
2023-01-06T14:52:18.349Z,14.16
2023-01-06T14:54:47.079Z,13.43
2023-01-06T14:57:32.265Z,12.86
2023-01-06T15:00:05.207Z,12.34
2023-01-06T15:02:32.799Z,11.99
2023-01-06T15:04:59.798Z,11.72
2023-01-06T15:07:26.873Z,11.47
2023-01-06T15:10:10.787Z,11.19
2023-01-06T15:12:38.767Z,10.93
2023-01-06T15:15:29.407Z,10.71
2023-01-06T15:17:57.215Z,10.54
2023-01-06T15:20:32.553Z,10.38
2023-01-06T15:23:00.595Z,10.22
2023-01-06T15:25:28.323Z,10.06
2023-01-06T15:27:57.350Z,9.91
2023-01-06T15:30:28.249Z,9.60
2023-01-06T15:32:56.218Z,9.63
2023-01-06T15:35:24.889Z,9.47
2023-01-06T15:38:06.896Z,9.30
2023-01-06T15:40:33.963Z,9.14
2023-01-06T15:43:01.572Z,9.04
2023-01-06T15:45:32.465Z,8.90
2023-01-06T15:48:01.444Z,8.78
2023-01-06T15:50:29.936Z,8.62
2023-01-06T15:53:04.155Z,8.49
2023-01-06T15:55:35.519Z,8.34
2023-01-06T15:58:05.691Z,8.22
2023-01-06T16:00:35.909Z,8.11
2023-01-06T16:03:04.008Z,7.99
2023-01-06T16:05:35.883Z,7.86
2023-01-06T16:08:05.056Z,7.74
2023-01-06T16:10:38.598Z,7.66
2023-01-06T16:13:15.464Z,7.60
2023-01-06T16:15:45.654Z,7.50
2023-01-06T16:18:13.872Z,7.42
2023-01-06T16:20:40.753Z,7.36
2023-01-06T16:23:17.297Z,7.28
2023-01-06T16:25:45.375Z,7.18
2023-01-06T16:28:19.297Z,7.06
2023-01-06T16:31:08.514Z,6.97
2023-01-06T16:33:39.848Z,6.90
2023-01-06T16:36:16.787Z,6.83
2023-01-06T16:38:44.569Z,6.75
2023-01-06T16:41:16.515Z,6.68
2023-01-06T16:43:44.092Z,6.63
2023-01-06T16:46:20.071Z,6.59
2023-01-06T16:48:47.936Z,6.57
2023-01-06T16:51:18.764Z,6.54
2023-01-06T16:53:46.448Z,6.47
2023-01-06T16:56:18.862Z,6.42
2023-01-06T16:58:48.737Z,6.37
2023-01-06T17:01:19.593Z,6.33
2023-01-06T17:03:51.975Z,6.31
2023-01-06T17:06:22.879Z,6.31
2023-01-06T17:08:50.922Z,6.30
2023-01-06T17:11:22.749Z,6.27
2023-01-06T17:14:10.360Z,6.27
2023-01-06T17:16:40.013Z,6.23
2023-01-06T17:19:22.128Z,6.18
2023-01-06T17:21:50.089Z,6.12
2023-01-06T17:24:25.099Z,6.11
2023-01-06T17:27:02.483Z,6.07
2023-01-06T17:29:30.811Z,6.02
2023-01-06T17:32:00.637Z,5.98
2023-01-06T17:34:33.788Z,5.92
2023-01-06T17:37:10.951Z,5.88
2023-01-06T17:39:41.259Z,5.86
2023-01-06T17:42:24.005Z,5.86
2023-01-06T17:44:55.561Z,5.84
2023-01-06T17:47:22.351Z,5.81
2023-01-06T17:49:56.756Z,5.80
2023-01-06T17:52:25.691Z,5.78
2023-01-06T17:55:12.994Z,5.77
2023-01-06T17:57:41.589Z,5.82
2023-01-06T18:00:24.896Z,5.88
2023-01-06T18:03:10.427Z,5.93
2023-01-06T18:05:52.583Z,5.99
2023-01-06T18:08:19.791Z,6.05
2023-01-06T18:10:57.757Z,6.10
2023-01-06T18:13:28.953Z,6.17
2023-01-06T18:15:59.663Z,6.23
2023-01-06T18:18:39.903Z,6.32
2023-01-06T18:21:16.119Z,6.41
2023-01-06T18:23:44.770Z,6.49
2023-01-06T18:26:26.595Z,6.59
2023-01-06T18:29:01.927Z,6.71
2023-01-06T18:31:33.573Z,6.79
2023-01-06T18:34:19.294Z,6.84
2023-01-06T18:36:47.831Z,6.91
2023-01-06T18:39:17.748Z,6.94
2023-01-06T18:41:44.514Z,6.96
2023-01-06T18:44:20.744Z,6.98
2023-01-06T18:46:56.143Z,7.01
2023-01-06T18:49:29.601Z,7.06
2023-01-06T18:51:56.783Z,7.10
2023-01-06T18:54:25.869Z,7.14
2023-01-06T18:56:52.705Z,7.18
2023-01-06T18:59:21.578Z,7.20
2023-01-06T19:01:49.796Z,7.24
2023-01-06T19:04:30.288Z,7.25
2023-01-06T19:07:09.911Z,7.27
2023-01-06T19:09:43.745Z,7.24
2023-01-06T19:12:19.953Z,7.25
2023-01-06T19:14:48.404Z,7.26
2023-01-06T19:17:20.922Z,7.25
2023-01-06T19:19:47.889Z,7.25
2023-01-06T19:22:15.113Z,7.27
2023-01-06T19:24:45.088Z,7.32
2023-01-06T19:27:29.969Z,7.33
2023-01-06T19:30:01.924Z,7.39
2023-01-06T19:32:34.859Z,7.42
2023-01-06T19:35:01.743Z,7.44
2023-01-06T19:37:28.459Z,7.47
2023-01-06T19:39:58.055Z,7.50
2023-01-06T19:42:30.241Z,7.54
2023-01-06T19:44:58.532Z,7.57
2023-01-06T19:47:27.809Z,7.59
2023-01-06T19:49:57.891Z,7.63
2023-01-06T19:52:29.216Z,7.64
2023-01-06T19:54:58.984Z,7.66
2023-01-06T19:57:38.873Z,7.67
2023-01-06T20:00:18.176Z,7.65
2023-01-06T20:02:46.450Z,7.66
2023-01-06T20:05:13.213Z,7.67
2023-01-06T20:07:39.977Z,7.65
2023-01-06T20:10:07.029Z,7.63
2023-01-06T20:12:33.740Z,7.59
2023-01-06T20:15:00.394Z,7.57
2023-01-06T20:17:27.134Z,7.56
2023-01-06T20:19:53.815Z,7.57
2023-01-06T20:22:22.258Z,7.59
2023-01-06T20:24:49.011Z,7.59
2023-01-06T20:27:16.341Z,7.60
2023-01-06T20:29:43.080Z,7.61
2023-01-06T20:32:09.851Z,7.60
2023-01-06T20:34:37.186Z,7.58
2023-01-06T20:37:03.980Z,7.57
2023-01-06T20:39:30.744Z,7.55
2023-01-06T20:41:57.727Z,7.51
2023-01-06T20:44:24.423Z,7.48
2023-01-06T20:46:51.179Z,7.49
2023-01-06T20:49:20.535Z,7.51
2023-01-06T20:51:47.312Z,7.53
2023-01-06T20:54:14.103Z,7.53
2023-01-06T20:56:40.810Z,7.52
2023-01-06T20:59:07.472Z,7.51
2023-01-06T21:01:34.452Z,7.48
2023-01-06T21:04:01.270Z,7.45
2023-01-06T21:06:28.039Z,7.37
2023-01-06T21:08:54.775Z,7.36
2023-01-06T21:11:21.572Z,7.37
2023-01-06T21:13:48.224Z,7.39
2023-01-06T21:16:15.020Z,7.41
2023-01-06T21:18:41.710Z,7.42
2023-01-06T21:21:08.549Z,7.43
2023-01-06T21:23:35.250Z,7.42
2023-01-06T21:26:02.008Z,7.42
2023-01-06T21:28:28.683Z,7.43
2023-01-06T21:30:55.584Z,7.42
2023-01-06T21:33:22.397Z,7.43
2023-01-06T21:35:49.274Z,7.40
2023-01-06T21:38:16.378Z,7.38
2023-01-06T21:40:43.196Z,7.42
2023-01-06T21:43:10.134Z,7.43
2023-01-06T21:45:41.177Z,7.46
2023-01-06T21:48:08.789Z,7.47
2023-01-06T21:50:38.199Z,7.47
2023-01-06T21:53:05.569Z,7.48
2023-01-06T21:55:32.286Z,7.47
2023-01-06T21:57:59.068Z,7.47
2023-01-06T22:00:25.836Z,7.46
2023-01-06T22:02:53.537Z,7.38
2023-01-06T22:05:20.316Z,7.33
2023-01-06T22:07:49.035Z,7.27
2023-01-06T22:10:17.317Z,7.25
2023-01-06T22:12:45.585Z,7.19
2023-01-06T22:15:12.849Z,7.18
2023-01-06T22:17:39.807Z,7.17
2023-01-06T22:20:07.152Z,7.18
2023-01-06T22:22:34.538Z,7.16
2023-01-06T22:25:02.005Z,7.14
2023-01-06T22:27:28.684Z,7.08
2023-01-06T22:29:55.461Z,7.03
2023-01-06T22:32:22.234Z,7.03
2023-01-06T22:34:48.975Z,7.00
2023-01-06T22:37:15.793Z,7.00
2023-01-06T22:39:44.114Z,6.98
2023-01-06T22:42:10.905Z,6.98
2023-01-06T22:44:37.574Z,6.98
2023-01-06T22:47:04.454Z,6.97
2023-01-06T22:49:31.167Z,6.89
2023-01-06T22:51:57.914Z,6.84
2023-01-06T22:54:24.651Z,6.79
2023-01-06T22:56:51.401Z,6.80
2023-01-06T22:59:18.191Z,6.74
2023-01-06T23:01:45.678Z,6.66
2023-01-06T23:04:13.791Z,6.64
2023-01-06T23:06:40.718Z,6.61
2023-01-06T23:09:07.487Z,6.57
2023-01-06T23:11:41.473Z,6.57
2023-01-06T23:14:08.998Z,6.55
2023-01-06T23:16:36.612Z,6.56
2023-01-06T23:19:03.374Z,6.56
2023-01-06T23:21:30.559Z,6.57
2023-01-06T23:23:57.393Z,6.55
2023-01-06T23:26:34.018Z,6.57
2023-01-06T23:29:01.006Z,6.63
2023-01-06T23:31:29.007Z,6.63
2023-01-06T23:33:57.118Z,6.65
2023-01-06T23:36:25.751Z,6.67
2023-01-06T23:38:52.838Z,6.72
2023-01-06T23:41:20.483Z,6.73
2023-01-06T23:43:47.854Z,6.74
2023-01-06T23:46:19.416Z,6.75
2023-01-06T23:48:46.383Z,6.77
2023-01-06T23:51:13.461Z,6.80
2023-01-06T23:53:40.743Z,6.81
2023-01-06T23:56:11.812Z,6.85
2023-01-06T23:58:39.470Z,6.86
